Time;durP1;ratioP1;P1;durP2;ratioP2;P2;SDS_P1;SDS_P2;PMS_P1;PMS_P2;Temp;Humidity;BMP_temperature;BMP_pressure;BME280_temperature;BME280_humidity;BME280_pressure;Samples;Min_cycle;Max_cycle;Signal;HPM_P1;HPM_P2
2023/04/19 00:00:28;;;;;;;12.73;8.38;;;8.40;99.90;;;;;;4902002;28;90110;-33
2023/04/19 00:02:54;;;;;;;15.23;8.88;;;8.40;99.90;;;;;;4901753;28;89220;-36
2023/04/19 00:05:23;;;;;;;15.15;9.63;;;8.40;99.90;;;;;;4902565;28;89986;-36
2023/04/19 00:07:49;;;;;;;12.85;8.35;;;8.40;99.90;;;;;;4929489;23;89963;-31
2023/04/19 00:10:15;;;;;;;11.95;9.55;;;8.40;99.90;;;;;;4870597;28;90819;-32
2023/04/19 00:12:41;;;;;;;14.52;8.05;;;8.40;99.90;;;;;;4881716;28;89459;-33
2023/04/19 00:15:07;;;;;;;9.55;8.48;;;8.40;99.90;;;;;;4883216;28;89376;-34
2023/04/19 00:17:33;;;;;;;10.45;7.47;;;8.40;99.90;;;;;;4882209;28;90985;-32
2023/04/19 00:19:59;;;;;;;11.73;8.57;;;8.40;99.90;;;;;;4870393;28;90556;-36
2023/04/19 00:22:25;;;;;;;10.73;8.85;;;8.40;99.90;;;;;;4882064;28;90423;-31
2023/04/19 00:24:51;;;;;;;13.48;9.50;;;8.30;99.90;;;;;;4869877;28;88277;-35
2023/04/19 00:27:17;;;;;;;12.35;8.68;;;8.40;99.90;;;;;;4882767;28;90210;-33
2023/04/19 00:29:43;;;;;;;9.43;7.80;;;8.40;99.90;;;;;;4896944;28;88493;-34
2023/04/19 00:32:08;;;;;;;14.65;9.75;;;8.40;99.90;;;;;;4882110;28;90029;-37
2023/04/19 00:34:34;;;;;;;14.38;9.27;;;8.40;99.90;;;;;;4883388;28;88897;-31
2023/04/19 00:37:00;;;;;;;11.13;8.25;;;8.30;99.90;;;;;;4881605;28;90974;-35
2023/04/19 00:39:25;;;;;;;8.10;7.03;;;8.30;99.90;;;;;;4882755;28;89601;-33
2023/04/19 00:41:51;;;;;;;7.25;6.50;;;8.30;99.90;;;;;;4881908;28;90305;-31
2023/04/19 00:44:17;;;;;;;10.15;7.60;;;8.30;99.90;;;;;;4882060;28;89390;-31
2023/04/19 00:46:43;;;;;;;11.85;8.05;;;8.30;99.90;;;;;;4877916;28;90358;-32
2023/04/19 00:49:09;;;;;;;11.73;7.57;;;8.20;99.90;;;;;;4880656;28;90004;-33
2023/04/19 00:51:35;;;;;;;9.50;6.90;;;8.20;99.90;;;;;;4882429;28;90170;-32
2023/04/19 00:54:02;;;;;;;10.38;7.00;;;8.20;99.90;;;;;;4882126;28;89725;-34
2023/04/19 00:56:28;;;;;;;12.68;7.43;;;8.20;99.90;;;;;;4881212;28;90251;-32
2023/04/19 00:58:55;;;;;;;12.23;8.00;;;8.20;99.90;;;;;;4881647;28;89565;-33
2023/04/19 01:01:21;;;;;;;12.95;8.75;;;8.30;99.90;;;;;;4881874;28;90563;-31
2023/04/19 01:03:47;;;;;;;12.57;7.75;;;8.30;99.90;;;;;;4884234;28;89185;-34
2023/04/19 01:06:13;;;;;;;9.10;6.72;;;8.20;99.90;;;;;;4880279;28;90396;-32
2023/04/19 01:08:39;;;;;;;8.50;6.38;;;8.20;99.90;;;;;;4879460;28;90557;-35
2023/04/19 01:11:06;;;;;;;8.88;6.90;;;8.20;99.90;;;;;;4881566;28;90718;-36
2023/04/19 01:13:33;;;;;;;13.45;9.63;;;8.10;99.90;;;;;;4882253;28;88622;-34
2023/04/19 01:15:59;;;;;;;7.90;7.13;;;8.10;99.90;;;;;;4881541;28;90856;-35
2023/04/19 01:18:28;;;;;;;10.02;8.02;;;8.10;99.90;;;;;;4882345;28;89572;-36
2023/04/19 01:20:53;;;;;;;16.00;8.02;;;8.10;99.90;;;;;;4881561;28;90028;-34
2023/04/19 01:23:19;;;;;;;9.65;8.27;;;8.00;99.90;;;;;;4874767;28;87879;-31
2023/04/19 01:25:45;;;;;;;12.30;7.25;;;8.00;99.90;;;;;;4875851;28;90818;-32
2023/04/19 01:28:10;;;;;;;10.35;8.02;;;7.90;99.90;;;;;;4882374;28;89699;-33
2023/04/19 01:30:37;;;;;;;28.85;8.57;;;7.90;99.90;;;;;;4881222;28;89641;-32
2023/04/19 01:33:02;;;;;;;12.20;9.18;;;7.90;99.90;;;;;;4881668;28;89759;-35
2023/04/19 01:35:28;;;;;;;15.02;9.68;;;7.90;99.90;;;;;;4881247;28;89671;-33
2023/04/19 01:37:55;;;;;;;8.32;7.32;;;7.90;99.90;;;;;;4881194;28;89418;-34
2023/04/19 01:40:24;;;;;;;12.75;8.70;;;7.80;99.90;;;;;;4881548;28;89125;-32
2023/04/19 01:42:50;;;;;;;9.45;7.70;;;7.70;99.90;;;;;;4881801;28;89065;-34
2023/04/19 01:45:16;;;;;;;12.20;7.60;;;7.70;99.90;;;;;;4881885;28;90175;-36
2023/04/19 01:47:41;;;;;;;11.07;8.05;;;7.70;99.90;;;;;;4881909;28;89883;-31
2023/04/19 01:50:07;;;;;;;10.90;9.23;;;7.70;99.90;;;;;;4885341;28;91079;-32
2023/04/19 01:52:33;;;;;;;9.95;8.00;;;7.60;99.90;;;;;;4884943;28;88868;-31
2023/04/19 01:54:59;;;;;;;14.13;9.82;;;7.70;99.90;;;;;;4884787;28;91185;-31
2023/04/19 01:57:24;;;;;;;9.95;7.30;;;7.70;99.90;;;;;;4884189;28;91822;-31
2023/04/19 01:59:51;;;;;;;12.25;7.97;;;7.60;99.90;;;;;;4882704;28;90532;-34
2023/04/19 02:02:16;;;;;;;12.02;7.57;;;7.50;99.90;;;;;;4884698;28;89894;-34
2023/04/19 02:04:42;;;;;;;22.20;10.48;;;7.50;99.90;;;;;;4884345;28;89804;-35
2023/04/19 02:07:08;;;;;;;14.60;9.80;;;7.50;99.90;;;;;;4884520;28;90046;-32
2023/04/19 02:09:37;;;;;;;9.20;7.40;;;7.30;99.90;;;;;;4884334;28;90083;-33
2023/04/19 02:12:04;;;;;;;10.95;8.02;;;7.30;99.90;;;;;;4884273;28;87746;-34
2023/04/19 02:14:30;;;;;;;10.95;8.23;;;7.30;99.90;;;;;;4884899;28;89236;-34
2023/04/19 02:16:56;;;;;;;10.85;8.52;;;7.30;99.90;;;;;;4883973;28;89871;-34
2023/04/19 02:19:22;;;;;;;12.15;7.82;;;7.20;99.90;;;;;;4884318;28;89733;-33
2023/04/19 02:21:48;;;;;;;13.05;8.70;;;7.20;99.90;;;;;;4884288;28;89122;-32
2023/04/19 02:24:14;;;;;;;20.63;8.80;;;7.10;99.90;;;;;;4871170;28;91187;-34
2023/04/19 02:26:39;;;;;;;13.75;9.43;;;7.20;99.90;;;;;;4884648;28;89339;-37
2023/04/19 02:29:05;;;;;;;9.93;7.55;;;7.10;99.90;;;;;;4883839;28;89528;-32
2023/04/19 02:31:31;;;;;;;12.68;7.28;;;7.10;99.90;;;;;;4884192;28;88895;-36
2023/04/19 02:33:57;;;;;;;13.23;8.48;;;7.10;99.90;;;;;;4884795;28;90393;-31
2023/04/19 02:36:23;;;;;;;9.40;8.43;;;7.00;99.90;;;;;;4884422;28;90244;-32
2023/04/19 02:38:48;;;;;;;10.27;7.90;;;7.00;99.90;;;;;;4884177;28;89915;-33
2023/04/19 02:41:14;;;;;;;9.10;7.90;;;7.00;99.90;;;;;;4883926;28;88925;-36
2023/04/19 02:43:40;;;;;;;9.32;6.40;;;6.90;99.90;;;;;;4884126;28;89211;-34
2023/04/19 02:46:05;;;;;;;11.43;8.40;;;6.90;99.90;;;;;;4883996;28;90565;-33
2023/04/19 02:48:31;;;;;;;12.07;9.95;;;6.90;99.90;;;;;;4883753;28;90784;-33
2023/04/19 02:50:57;;;;;;;12.35;8.10;;;6.90;99.90;;;;;;4884319;28;90491;-33
2023/04/19 02:53:22;;;;;;;13.30;9.43;;;6.80;99.90;;;;;;4884111;28;91315;-33
2023/04/19 02:55:48;;;;;;;9.85;8.25;;;6.80;99.90;;;;;;4884201;28;89697;-31
2023/04/19 02:58:14;;;;;;;18.88;8.73;;;6.70;99.90;;;;;;4883496;28;89868;-36
2023/04/19 03:00:39;;;;;;;12.80;8.77;;;6.70;99.90;;;;;;4879160;28;89762;-36
2023/04/19 03:03:06;;;;;;;9.90;8.20;;;6.60;99.90;;;;;;4879588;28;89736;-33
2023/04/19 03:05:31;;;;;;;14.15;8.93;;;6.50;99.90;;;;;;4883667;28;90365;-34
2023/04/19 03:07:57;;;;;;;13.27;8.25;;;6.50;99.90;;;;;;4883178;28;90711;-32
2023/04/19 03:10:23;;;;;;;12.93;8.23;;;6.50;99.90;;;;;;4883534;28;89787;-32
2023/04/19 03:12:48;;;;;;;11.50;8.15;;;6.40;99.90;;;;;;4883164;28;88957;-33
2023/04/19 03:15:14;;;;;;;14.77;9.82;;;6.40;99.90;;;;;;4883688;28;89716;-34
2023/04/19 03:17:40;;;;;;;13.68;10.23;;;6.30;99.90;;;;;;4882498;28;89965;-32
2023/04/19 03:20:10;;;;;;;11.05;7.57;;;6.30;99.90;;;;;;4879503;28;90042;-36
2023/04/19 03:22:36;;;;;;;9.88;7.53;;;6.30;99.90;;;;;;4877976;28;90022;-34
2023/04/19 03:25:03;;;;;;;12.05;8.05;;;6.20;99.90;;;;;;4872533;28;90894;-34
2023/04/19 03:27:28;;;;;;;12.23;7.03;;;6.20;99.90;;;;;;4883749;28;89328;-33
2023/04/19 03:29:55;;;;;;;13.93;9.85;;;6.20;99.90;;;;;;4883876;28;88478;-36
2023/04/19 03:32:21;;;;;;;13.50;9.02;;;6.10;99.90;;;;;;4883028;28;87901;-35
2023/04/19 03:34:46;;;;;;;12.27;8.48;;;6.20;99.90;;;;;;4882593;28;90921;-34
2023/04/19 03:37:12;;;;;;;10.90;7.95;;;6.10;99.90;;;;;;4883421;28;92094;-32
2023/04/19 03:39:37;;;;;;;9.05;6.57;;;6.10;99.90;;;;;;4883069;28;88913;-34
2023/04/19 03:42:03;;;;;;;10.68;7.80;;;6.00;99.90;;;;;;4883236;28;89770;-32
2023/04/19 03:44:32;;;;;;;13.45;7.63;;;5.90;99.90;;;;;;4886843;28;90115;-31
2023/04/19 03:46:58;;;;;;;12.38;7.13;;;5.90;99.90;;;;;;4882438;28;89618;-32
2023/04/19 03:49:24;;;;;;;10.70;8.57;;;5.90;99.90;;;;;;4884593;28;89725;-34
2023/04/19 03:51:49;;;;;;;8.68;7.68;;;5.90;99.90;;;;;;4882088;28;90746;-34
2023/04/19 03:54:15;;;;;;;12.90;8.18;;;5.90;99.90;;;;;;4883635;28;89583;-35
2023/04/19 03:56:41;;;;;;;13.02;8.88;;;5.90;99.90;;;;;;4882998;28;89988;-32
2023/04/19 03:59:08;;;;;;;11.48;8.07;;;5.80;99.90;;;;;;4882751;28;88494;-33
2023/04/19 04:01:33;;;;;;;15.15;7.50;;;5.70;99.90;;;;;;4882605;28;90189;-36
2023/04/19 04:03:59;;;;;;;16.02;7.78;;;5.80;99.90;;;;;;4882464;28;89772;-34
2023/04/19 04:06:25;;;;;;;7.07;5.03;;;5.80;99.90;;;;;;4882320;28;89553;-34
2023/04/19 04:08:51;;;;;;;15.70;8.77;;;5.70;99.90;;;;;;4882906;28;88651;-30
2023/04/19 04:11:17;;;;;;;16.02;6.78;;;5.60;99.90;;;;;;4881490;28;89363;-31
2023/04/19 04:13:42;;;;;;;8.75;6.80;;;5.60;99.90;;;;;;4882936;28;89584;-36
2023/04/19 04:16:08;;;;;;;9.18;6.97;;;5.60;99.90;;;;;;4881940;28;89559;-34
2023/04/19 04:18:34;;;;;;;8.90;6.50;;;5.60;99.90;;;;;;4881103;28;88470;-35
2023/04/19 04:20:59;;;;;;;9.30;6.65;;;5.50;99.90;;;;;;4882146;28;91444;-33
2023/04/19 04:23:25;;;;;;;14.57;8.15;;;5.50;99.90;;;;;;4873951;28;90671;-33
2023/04/19 04:26:01;;;;;;;12.13;8.05;;;5.40;99.90;;;;;;4878084;28;90341;-35
2023/04/19 04:28:27;;;;;;;11.25;7.05;;;5.50;99.90;;;;;;4880914;28;88505;-33
2023/04/19 04:30:56;;;;;;;10.82;7.32;;;5.50;99.90;;;;;;4881412;28;90483;-33
2023/04/19 04:33:25;;;;;;;10.43;6.55;;;5.40;99.90;;;;;;4882783;28;89726;-33
2023/04/19 04:35:52;;;;;;;9.35;6.43;;;5.40;99.90;;;;;;4882442;28;89531;-32
2023/04/19 04:38:18;;;;;;;10.48;7.05;;;5.40;99.90;;;;;;4882447;28;89353;-32
2023/04/19 04:40:54;;;;;;;8.98;7.88;;;5.40;99.90;;;;;;4882061;28;91454;-32
2023/04/19 04:43:24;;;;;;;9.77;6.93;;;5.30;99.90;;;;;;4882664;28;89332;-36
2023/04/19 04:45:50;;;;;;;6.30;5.68;;;5.30;99.90;;;;;;4882187;28;90382;-36
2023/04/19 04:48:16;;;;;;;14.73;7.32;;;5.30;99.90;;;;;;4890399;28;89900;-34
2023/04/19 04:50:42;;;;;;;9.52;7.47;;;5.30;99.90;;;;;;4881638;28;89272;-33
2023/04/19 04:53:08;;;;;;;10.15;6.82;;;5.30;99.90;;;;;;4881978;28;90171;-34
2023/04/19 04:55:35;;;;;;;11.20;7.15;;;5.30;99.90;;;;;;4879965;28;93181;-35
2023/04/19 04:58:00;;;;;;;12.63;8.70;;;5.40;99.90;;;;;;4881541;28;89448;-36
2023/04/19 05:00:26;;;;;;;10.57;6.18;;;5.40;99.90;;;;;;4882658;28;89310;-34
2023/04/19 05:02:52;;;;;;;9.05;5.40;;;5.50;99.90;;;;;;4881162;28;89213;-33
2023/04/19 05:05:17;;;;;;;9.00;7.30;;;5.50;99.90;;;;;;4882196;28;90551;-31
2023/04/19 05:07:43;;;;;;;13.07;6.68;;;5.50;99.90;;;;;;4881115;28;89023;-36
2023/04/19 05:10:09;;;;;;;7.28;5.57;;;5.40;99.90;;;;;;4882088;28;90785;-36
2023/04/19 05:12:36;;;;;;;9.50;6.70;;;5.50;99.90;;;;;;4881735;28;91730;-32
2023/04/19 05:15:02;;;;;;;9.40;6.00;;;5.50;99.90;;;;;;4881130;28;91259;-34
2023/04/19 05:17:27;;;;;;;11.25;6.57;;;5.60;99.90;;;;;;4882252;28;90146;-32
2023/04/19 05:19:53;;;;;;;6.93;6.05;;;5.50;99.90;;;;;;4881600;28;89157;-32
2023/04/19 05:22:19;;;;;;;9.32;6.85;;;5.70;99.90;;;;;;4881958;28;90575;-33
2023/04/19 05:24:44;;;;;;;9.43;6.43;;;5.70;99.90;;;;;;4869237;28;89366;-32
2023/04/19 05:27:10;;;;;;;8.25;7.00;;;5.80;99.90;;;;;;4881760;28;89292;-32
2023/04/19 05:29:36;;;;;;;6.68;5.65;;;5.90;99.90;;;;;;4881760;28;90424;-32
2023/04/19 05:32:01;;;;;;;9.15;8.20;;;6.00;99.90;;;;;;4881022;28;89111;-32
2023/04/19 05:34:27;;;;;;;9.15;7.05;;;6.00;99.90;;;;;;4881675;28;89413;-36
2023/04/19 05:36:52;;;;;;;7.10;5.05;;;6.10;99.90;;;;;;4881297;28;89996;-32
2023/04/19 05:39:18;;;;;;;9.23;6.90;;;6.20;99.90;;;;;;4881513;28;90248;-37
2023/04/19 05:41:44;;;;;;;9.85;7.85;;;6.20;99.90;;;;;;4881517;28;88854;-32
2023/04/19 05:44:09;;;;;;;7.93;6.22;;;6.30;99.90;;;;;;4880005;28;89863;-31
2023/04/19 05:46:35;;;;;;;5.88;4.60;;;6.30;99.90;;;;;;4881644;28;89124;-32
2023/04/19 05:49:01;;;;;;;6.65;5.15;;;6.40;99.90;;;;;;4880928;28;90040;-32
2023/04/19 05:51:27;;;;;;;9.00;5.50;;;6.40;99.90;;;;;;4876777;28;89984;-33
2023/04/19 05:53:53;;;;;;;10.55;6.93;;;6.40;99.90;;;;;;4880452;28;91002;-32
2023/04/19 05:56:18;;;;;;;11.98;5.63;;;6.40;99.90;;;;;;4881460;28;90510;-31
2023/04/19 05:58:44;;;;;;;10.90;7.32;;;6.50;99.90;;;;;;4881499;28;91321;-32
2023/04/19 06:01:10;;;;;;;8.50;6.07;;;6.60;99.90;;;;;;4874521;28;90869;-33
2023/04/19 06:03:36;;;;;;;8.20;5.82;;;6.60;99.90;;;;;;4875155;28;89292;-34
2023/04/19 06:06:01;;;;;;;7.30;5.20;;;6.60;99.90;;;;;;4875022;28;89534;-33
2023/04/19 06:08:27;;;;;;;8.80;6.20;;;6.70;99.90;;;;;;4880322;28;89117;-31
2023/04/19 06:10:54;;;;;;;5.13;4.57;;;6.80;99.90;;;;;;4881031;28;89939;-31
2023/04/19 06:13:20;;;;;;;11.30;7.30;;;6.90;99.90;;;;;;4881300;28;89720;-33
2023/04/19 06:15:46;;;;;;;7.80;5.57;;;6.90;99.90;;;;;;4870507;28;89788;-36
2023/04/19 06:18:12;;;;;;;7.00;5.50;;;7.00;99.90;;;;;;4870848;28;89212;-35
2023/04/19 06:20:38;;;;;;;5.68;5.10;;;7.10;99.90;;;;;;4880518;28;89820;-35
2023/04/19 06:23:05;;;;;;;7.20;5.22;;;7.10;99.90;;;;;;4873366;28;89417;-31
2023/04/19 06:25:30;;;;;;;7.47;5.80;;;7.20;99.90;;;;;;4873915;28;90391;-33
2023/04/19 06:27:56;;;;;;;10.02;7.90;;;7.20;99.90;;;;;;4879772;28;89710;-33
2023/04/19 06:30:22;;;;;;;9.77;5.28;;;7.30;99.90;;;;;;4880849;28;90166;-35
2023/04/19 06:32:47;;;;;;;8.80;6.30;;;7.40;99.90;;;;;;4878876;28;91116;-34
2023/04/19 06:35:14;;;;;;;7.70;6.35;;;7.50;99.90;;;;;;4876138;28;87601;-31
2023/04/19 06:37:39;;;;;;;5.55;4.65;;;7.60;99.90;;;;;;4874684;28;89623;-36
2023/04/19 06:40:07;;;;;;;8.02;5.05;;;7.60;99.90;;;;;;4884043;28;90264;-34
2023/04/19 06:42:33;;;;;;;12.75;6.88;;;7.70;99.90;;;;;;4876006;28;89701;-33
2023/04/19 06:44:59;;;;;;;7.00;5.70;;;7.80;99.90;;;;;;4884471;28;89763;-33
2023/04/19 06:47:26;;;;;;;4.60;3.35;;;8.00;99.90;;;;;;4885705;28;89946;-31
2023/04/19 06:49:51;;;;;;;11.35;6.47;;;8.10;99.90;;;;;;4883835;28;90540;-30
2023/04/19 06:52:17;;;;;;;7.57;4.53;;;8.10;99.90;;;;;;4883558;28;90663;-31
2023/04/19 06:54:49;;;;;;;6.45;5.85;;;8.30;99.90;;;;;;4883738;28;89673;-36
2023/04/19 06:57:18;;;;;;;6.40;5.35;;;8.40;99.90;;;;;;4883357;28;90671;-32
2023/04/19 06:59:43;;;;;;;;;;;8.40;99.90;;;;;;4883931;28;90169;-33
2023/04/19 07:02:09;;;;;;;5.57;5.00;;;8.60;99.90;;;;;;4885890;28;89386;-33
2023/04/19 07:04:36;;;;;;;5.53;4.60;;;8.60;99.90;;;;;;4883972;28;88199;-35
2023/04/19 07:07:02;;;;;;;8.48;6.13;;;8.60;99.90;;;;;;4881217;28;90041;-36
2023/04/19 07:09:27;;;;;;;5.53;4.88;;;8.70;99.90;;;;;;4881829;28;89876;-31
2023/04/19 07:11:53;;;;;;;6.85;5.20;;;8.90;99.90;;;;;;4880815;28;89352;-30
2023/04/19 07:14:19;;;;;;;12.05;3.83;;;9.00;99.90;;;;;;4882009;28;89263;-31
2023/04/19 07:16:45;;;;;;;5.10;4.47;;;9.10;99.90;;;;;;4880453;28;91125;-31
2023/04/19 07:19:12;;;;;;;4.55;3.25;;;9.20;99.90;;;;;;4880246;28;90086;-31
2023/04/19 07:21:38;;;;;;;5.15;4.43;;;9.30;99.90;;;;;;4881094;28;89683;-31
2023/04/19 07:24:05;;;;;;;4.80;4.18;;;9.40;99.90;;;;;;4867995;28;89407;-32
2023/04/19 07:26:31;;;;;;;5.97;5.47;;;9.50;99.90;;;;;;4881373;28;89762;-31
2023/04/19 07:28:57;;;;;;;6.45;4.50;;;9.50;87.00;;;;;;4880763;28;89729;-31
2023/04/19 07:31:24;;;;;;;5.53;2.97;;;9.60;91.70;;;;;;4880731;28;90155;-29
2023/04/19 07:33:50;;;;;;;6.38;3.95;;;9.70;92.50;;;;;;4881034;28;89389;-33
2023/04/19 07:36:16;;;;;;;7.22;3.70;;;9.80;99.90;;;;;;4881701;28;89718;-28
2023/04/19 07:38:41;;;;;;;3.88;3.47;;;9.90;84.60;;;;;;4881061;28;90064;-29
2023/04/19 07:41:07;;;;;;;4.60;4.20;;;9.90;87.50;;;;;;4883449;28;90056;-32
2023/04/19 07:43:33;;;;;;;5.25;4.75;;;10.00;85.90;;;;;;4882290;28;90122;-30
2023/04/19 07:45:59;;;;;;;5.13;4.05;;;9.90;78.50;;;;;;4880580;28;90046;-31
2023/04/19 07:48:25;;;;;;;5.63;4.10;;;10.00;84.60;;;;;;4879708;28;91836;-30
2023/04/19 07:50:50;;;;;;;11.63;5.45;;;10.10;84.10;;;;;;4870440;28;89876;-30
2023/04/19 07:53:17;;;;;;;4.07;2.95;;;10.20;85.50;;;;;;4883308;28;88219;-32
2023/04/19 07:55:43;;;;;;;7.07;5.43;;;10.20;83.10;;;;;;4882302;28;89921;-32
2023/04/19 07:58:08;;;;;;;8.77;5.32;;;10.40;79.20;;;;;;4882322;28;90758;-35
2023/04/19 08:00:35;;;;;;;5.85;4.32;;;10.30;78.90;;;;;;4883056;28;89695;-32
2023/04/19 08:03:02;;;;;;;5.53;4.07;;;10.40;82.70;;;;;;4882243;28;90014;-29
2023/04/19 08:05:28;;;;;;;3.47;3.08;;;10.40;76.90;;;;;;4882726;28;90392;-32
2023/04/19 08:07:55;;;;;;;4.88;4.15;;;10.50;80.10;;;;;;4889901;28;90025;-31
2023/04/19 08:10:22;;;;;;;5.32;3.15;;;10.70;78.00;;;;;;4880770;28;89505;-30
2023/04/19 08:12:49;;;;;;;6.65;4.65;;;10.70;78.00;;;;;;4881075;28;89187;-33
2023/04/19 08:15:14;;;;;;;4.50;4.13;;;10.90;76.70;;;;;;4881950;28;90055;-32
2023/04/19 08:17:42;;;;;;;5.15;3.00;;;10.90;75.90;;;;;;4880099;28;90053;-33
2023/04/19 08:20:10;;;;;;;5.17;4.13;;;11.00;76.80;;;;;;4881839;28;89203;-34
2023/04/19 08:22:36;;;;;;;11.20;4.28;;;11.20;78.90;;;;;;4879535;28;90829;-29
2023/04/19 08:25:01;;;;;;;5.15;3.88;;;11.30;72.20;;;;;;4870055;28;91084;-30
2023/04/19 08:27:27;;;;;;;6.78;4.43;;;11.30;76.20;;;;;;4880410;28;90687;-31
2023/04/19 08:29:53;;;;;;;5.30;4.50;;;11.30;73.30;;;;;;4880717;28;90257;-30
2023/04/19 08:32:19;;;;;;;13.68;4.90;;;11.40;70.90;;;;;;4880750;28;89332;-32
2023/04/19 08:34:45;;;;;;;11.38;4.22;;;11.50;72.90;;;;;;4881469;28;90712;-34
2023/04/19 08:37:10;;;;;;;5.15;3.78;;;11.50;73.10;;;;;;4880465;28;90765;-31
2023/04/19 08:39:36;;;;;;;4.72;4.32;;;11.60;69.50;;;;;;4880524;28;89848;-31
2023/04/19 08:42:07;;;;;;;5.03;4.05;;;11.70;71.90;;;;;;4881035;28;89045;-31
2023/04/19 08:44:34;;;;;;;6.10;4.85;;;11.80;71.20;;;;;;4881100;28;90354;-33
2023/04/19 08:47:00;;;;;;;5.10;4.25;;;11.80;69.30;;;;;;4880886;28;90033;-29
2023/04/19 08:49:27;;;;;;;3.78;3.47;;;12.00;70.90;;;;;;4895205;28;88084;-34
2023/04/19 08:51:54;;;;;;;5.03;3.55;;;11.90;68.20;;;;;;4880682;28;90668;-29
2023/04/19 08:54:21;;;;;;;5.35;4.70;;;12.00;70.40;;;;;;4880664;28;90633;-29
2023/04/19 08:56:46;;;;;;;4.55;4.15;;;12.00;66.40;;;;;;4879339;28;89608;-30
2023/04/19 08:59:13;;;;;;;5.60;3.90;;;11.90;63.30;;;;;;4880681;28;88209;-30
2023/04/19 09:01:39;;;;;;;5.78;3.78;;;11.90;66.50;;;;;;4880585;28;89169;-31
2023/04/19 09:04:06;;;;;;;4.30;3.90;;;11.90;66.10;;;;;;4880199;28;90296;-33
2023/04/19 09:06:38;;;;;;;5.40;3.72;;;12.00;64.50;;;;;;4880159;28;89706;-34
2023/04/19 09:09:15;;;;;;;5.72;5.22;;;12.10;63.80;;;;;;4841067;28;1137409;-30
2023/04/19 09:11:41;;;;;;;3.95;3.38;;;12.20;65.80;;;;;;4881633;28;89586;-31
2023/04/19 09:14:13;;;;;;;5.22;4.72;;;12.30;64.40;;;;;;4881471;28;91534;-31
2023/04/19 09:16:38;;;;;;;3.00;2.60;;;12.30;61.50;;;;;;4881304;28;91050;-31
2023/04/19 09:19:05;;;;;;;4.30;3.58;;;12.20;61.20;;;;;;4880810;28;91863;-32
2023/04/19 09:21:31;;;;;;;3.47;3.17;;;12.30;63.70;;;;;;4879865;28;89469;-36
2023/04/19 09:23:58;;;;;;;3.55;2.65;;;12.50;63.50;;;;;;4869484;28;90091;-30
2023/04/19 09:26:28;;;;;;;4.10;2.72;;;12.70;67.20;;;;;;4881211;28;90195;-32
2023/04/19 09:29:04;;;;;;;4.40;4.00;;;12.80;61.70;;;;;;4880993;28;89203;-31
2023/04/19 09:31:35;;;;;;;4.38;3.38;;;12.90;64.40;;;;;;4880901;28;89229;-33
2023/04/19 09:34:15;;;;;;;2.63;2.40;;;12.80;61.10;;;;;;4881123;28;90465;-30
2023/04/19 09:36:41;;;;;;;3.92;3.63;;;12.80;63.70;;;;;;4880840;28;90102;-32
2023/04/19 09:39:07;;;;;;;4.40;2.70;;;12.90;61.30;;;;;;4881192;28;89327;-34
2023/04/19 09:41:34;;;;;;;2.30;2.10;;;13.10;62.60;;;;;;4887156;28;90461;-31
2023/04/19 09:44:14;;;;;;;3.13;2.83;;;13.00;59.60;;;;;;4880270;28;89336;-30
2023/04/19 09:46:41;;;;;;;3.85;3.55;;;13.10;58.50;;;;;;4880683;28;90086;-30
2023/04/19 09:49:16;;;;;;;5.43;2.55;;;13.00;59.70;;;;;;4880577;28;88677;-32
2023/04/19 09:51:43;;;;;;;7.47;3.40;;;13.20;59.30;;;;;;4881422;28;89606;-30
2023/04/19 09:54:10;;;;;;;2.65;2.08;;;13.20;62.10;;;;;;4881238;28;90212;-33
2023/04/19 09:56:37;;;;;;;3.65;2.40;;;13.30;60.50;;;;;;4880888;28;89654;-34
2023/04/19 09:59:03;;;;;;;2.30;2.10;;;13.30;61.10;;;;;;4881116;28;89477;-31
2023/04/19 10:01:43;;;;;;;3.92;2.85;;;13.40;58.10;;;;;;4881362;28;88236;-30
2023/04/19 10:04:20;;;;;;;3.80;2.80;;;13.60;62.50;;;;;;4881726;28;90354;-33
2023/04/19 10:06:48;;;;;;;3.23;1.83;;;13.50;61.60;;;;;;4880188;28;90251;-33
2023/04/19 10:09:14;;;;;;;5.97;3.87;;;13.60;60.70;;;;;;4881734;28;90759;-30
2023/04/19 10:11:42;;;;;;;4.55;3.33;;;13.50;56.20;;;;;;4884352;28;87731;-34
2023/04/19 10:14:09;;;;;;;10.00;2.90;;;13.60;56.70;;;;;;4884769;28;90145;-30
2023/04/19 10:16:36;;;;;;;2.25;2.05;;;13.70;57.70;;;;;;4884327;28;92069;-32
2023/04/19 10:19:05;;;;;;;3.83;2.80;;;13.90;57.80;;;;;;4884251;28;89417;-34
2023/04/19 10:21:32;;;;;;;4.85;2.35;;;13.90;60.10;;;;;;4884615;28;89257;-34
2023/04/19 10:23:58;;;;;;;3.75;3.03;;;14.00;57.90;;;;;;4872561;28;90294;-29
2023/04/19 10:26:24;;;;;;;4.50;3.45;;;13.90;57.30;;;;;;4884218;28;89544;-32
2023/04/19 10:28:49;;;;;;;3.47;3.17;;;14.00;56.30;;;;;;4884524;28;90068;-30
2023/04/19 10:31:22;;;;;;;5.57;2.85;;;13.90;56.80;;;;;;4883506;28;88672;-30
2023/04/19 10:33:48;;;;;;;4.00;2.88;;;14.00;57.90;;;;;;4883762;28;90659;-31
2023/04/19 10:36:16;;;;;;;2.83;2.63;;;14.10;57.20;;;;;;4884560;28;90651;-32
2023/04/19 10:38:51;;;;;;;6.30;2.80;;;14.10;54.20;;;;;;4883762;28;89491;-34
2023/04/19 10:41:18;;;;;;;2.97;2.63;;;14.10;59.10;;;;;;4875436;28;90636;-30
2023/04/19 10:43:54;;;;;;;2.80;2.10;;;14.00;55.40;;;;;;4879474;28;90377;-30
2023/04/19 10:46:19;;;;;;;2.70;2.50;;;14.00;56.20;;;;;;4883523;28;89614;-31
2023/04/19 10:49:02;;;;;;;2.58;2.38;;;14.30;56.80;;;;;;4883411;28;89654;-31
2023/04/19 10:51:35;;;;;;;3.40;3.08;;;14.50;59.70;;;;;;4883932;28;89288;-32
2023/04/19 10:54:05;;;;;;;2.53;2.20;;;14.30;57.50;;;;;;4883969;28;91755;-29
2023/04/19 10:56:34;;;;;;;3.25;2.40;;;14.40;57.70;;;;;;4883259;28;91285;-32
2023/04/19 10:59:00;;;;;;;2.75;2.55;;;14.40;54.80;;;;;;4882940;28;90659;-29
2023/04/19 11:01:39;;;;;;;2.95;2.20;;;14.20;56.30;;;;;;4883968;28;89319;-34
2023/04/19 11:04:10;;;;;;;3.35;2.70;;;14.50;58.20;;;;;;4884063;28;90204;-34
2023/04/19 11:06:59;;;;;;;2.33;2.22;;;14.50;57.20;;;;;;4883244;28;89769;-31
2023/04/19 11:09:27;;;;;;;2.83;2.58;;;14.40;54.00;;;;;;4886593;28;90179;-30
2023/04/19 11:11:57;;;;;;;2.40;2.20;;;14.40;55.40;;;;;;4881593;28;88751;-30
2023/04/19 11:14:24;;;;;;;3.08;2.78;;;14.50;56.00;;;;;;4876223;28;90937;-30
2023/04/19 11:16:49;;;;;;;2.63;2.17;;;14.40;56.80;;;;;;4881956;28;89667;-34
2023/04/19 11:19:16;;;;;;;2.83;2.60;;;14.50;56.60;;;;;;4876377;28;90719;-32
2023/04/19 11:21:41;;;;;;;3.50;2.47;;;14.30;53.30;;;;;;4881049;28;89173;-33
2023/04/19 11:24:08;;;;;;;3.47;2.80;;;14.40;57.30;;;;;;4868494;28;90263;-33
2023/04/19 11:26:34;;;;;;;3.33;3.03;;;14.50;56.40;;;;;;4881361;28;89076;-32
2023/04/19 11:29:00;;;;;;;3.25;2.72;;;14.50;57.60;;;;;;4881065;28;89887;-35
2023/04/19 11:31:26;;;;;;;3.72;2.70;;;14.40;57.50;;;;;;4881965;28;88161;-30
2023/04/19 11:33:52;;;;;;;5.28;3.65;;;14.40;57.40;;;;;;4881321;28;90036;-30
2023/04/19 11:36:18;;;;;;;3.47;3.25;;;14.30;59.30;;;;;;4881572;28;90088;-31
2023/04/19 11:38:47;;;;;;;4.38;3.33;;;14.10;58.90;;;;;;4881089;28;89722;-33
2023/04/19 11:41:13;;;;;;;2.78;2.25;;;14.00;58.40;;;;;;4881114;28;87686;-32
2023/04/19 11:43:40;;;;;;;10.88;4.35;;;14.20;62.00;;;;;;4880900;28;90515;-33
2023/04/19 11:46:10;;;;;;;8.25;3.45;;;14.50;61.00;;;;;;4881139;28;90321;-34
2023/04/19 11:48:37;;;;;;;6.88;3.20;;;14.40;60.10;;;;;;4881083;28;90160;-32
2023/04/19 11:51:03;;;;;;;5.15;4.00;;;14.40;60.20;;;;;;4881709;28;89397;-32
2023/04/19 11:53:31;;;;;;;6.80;3.55;;;14.10;59.10;;;;;;4880728;28;89647;-33
2023/04/19 11:56:04;;;;;;;5.03;4.43;;;14.30;60.40;;;;;;4881025;28;90053;-34
2023/04/19 11:58:31;;;;;;;5.03;3.78;;;14.20;58.80;;;;;;4880988;28;89422;-35
2023/04/19 12:01:07;;;;;;;4.32;3.92;;;14.20;60.90;;;;;;4880859;28;89192;-35
2023/04/19 12:03:38;;;;;;;4.80;3.38;;;14.30;61.20;;;;;;4881700;28;90240;-34
2023/04/19 12:06:07;;;;;;;5.32;3.53;;;14.30;61.40;;;;;;4880453;28;89689;-33
2023/04/19 12:08:38;;;;;;;3.70;3.40;;;14.20;62.50;;;;;;4918569;23;90130;-33
2023/04/19 12:11:05;;;;;;;10.82;4.50;;;14.30;63.80;;;;;;4890384;28;89952;-33
2023/04/19 12:13:31;;;;;;;4.55;3.78;;;14.10;62.60;;;;;;4900068;28;89875;-34
2023/04/19 12:15:57;;;;;;;4.40;4.00;;;14.20;63.00;;;;;;4904231;28;89760;-35
2023/04/19 12:18:23;;;;;;;6.28;4.25;;;14.20;64.40;;;;;;4893980;28;88338;-34
2023/04/19 12:20:50;;;;;;;4.88;4.00;;;14.30;65.90;;;;;;4895054;28;89328;-35
2023/04/19 12:23:18;;;;;;;7.75;4.95;;;14.10;65.20;;;;;;4889141;28;90550;-32
2023/04/19 12:25:46;;;;;;;5.63;5.03;;;14.10;63.10;;;;;;4893514;28;90063;-32
2023/04/19 12:28:12;;;;;;;5.45;4.90;;;14.50;63.30;;;;;;4899207;28;89571;-36
2023/04/19 12:30:38;;;;;;;5.38;3.78;;;14.50;63.70;;;;;;4898809;28;88533;-34
2023/04/19 12:33:06;;;;;;;4.85;4.15;;;14.50;66.10;;;;;;4898652;28;89525;-34
2023/04/19 12:35:32;;;;;;;3.93;3.63;;;14.50;63.20;;;;;;4898349;28;90820;-33
2023/04/19 12:37:59;;;;;;;5.65;4.60;;;14.40;62.40;;;;;;4898939;28;91973;-33
2023/04/19 12:40:26;;;;;;;7.05;3.78;;;14.30;62.60;;;;;;4898534;28;88773;-32
2023/04/19 12:42:52;;;;;;;5.13;3.58;;;14.50;65.10;;;;;;4897809;28;90934;-36
2023/04/19 12:45:18;;;;;;;6.20;3.70;;;14.40;62.20;;;;;;4898688;28;90960;-33
2023/04/19 12:47:46;;;;;;;4.78;4.30;;;14.40;63.40;;;;;;4897983;28;89476;-33